Time;durP1;ratioP1;P1;durP2;ratioP2;P2;SDS_P1;SDS_P2;PMS_P1;PMS_P2;Temp;Humidity;BMP_temperature;BMP_pressure;BME280_temperature;BME280_humidity;BME280_pressure;Samples;Min_cycle;Max_cycle;Signal;HPM_P1;HPM_P2
2023/12/29 00:02:10;;;;;;;12.18;6.95;;;5.10;99.90;;;;;;4884313;29;20103;-76
2023/12/29 00:04:35;;;;;;;9.77;6.13;;;5.10;99.90;;;;;;4901920;29;20059;-76
2023/12/29 00:07:02;;;;;;;10.95;6.38;;;5.00;99.90;;;;;;4902523;29;20036;-76
2023/12/29 00:09:28;;;;;;;12.23;7.20;;;4.90;99.90;;;;;;4904310;29;20039;-76
2023/12/29 00:11:56;;;;;;;12.57;6.80;;;4.90;99.90;;;;;;4904458;29;20028;-76
2023/12/29 00:14:22;;;;;;;14.45;7.38;;;5.00;99.90;;;;;;4905403;29;20038;-76
2023/12/29 00:16:48;;;;;;;13.35;7.90;;;4.90;99.90;;;;;;4905213;29;20039;-75
2023/12/29 00:19:14;;;;;;;12.75;7.80;;;4.80;99.90;;;;;;4907274;29;20048;-76
2023/12/29 00:21:40;;;;;;;12.15;7.18;;;4.70;99.90;;;;;;4907337;29;20032;-76
2023/12/29 00:24:06;;;;;;;12.15;7.10;;;4.80;99.90;;;;;;4906602;29;20036;-76
2023/12/29 00:26:31;;;;;;;14.05;8.60;;;4.80;99.90;;;;;;4909264;29;20028;-76
2023/12/29 00:28:57;;;;;;;12.75;7.50;;;4.80;99.90;;;;;;4906690;29;20491;-76
2023/12/29 00:31:23;;;;;;;13.02;8.73;;;4.80;99.90;;;;;;4906633;29;20038;-76
2023/12/29 00:33:51;;;;;;;11.52;7.72;;;4.90;99.90;;;;;;4906173;29;20039;-76
2023/12/29 00:36:18;;;;;;;10.02;6.75;;;5.00;99.90;;;;;;4907023;29;20031;-76
2023/12/29 00:38:44;;;;;;;12.70;6.85;;;5.00;99.90;;;;;;4906016;29;20103;-76
2023/12/29 00:41:10;;;;;;;12.75;7.13;;;4.90;99.90;;;;;;4905817;29;20032;-76
2023/12/29 00:43:36;;;;;;;12.57;7.47;;;4.80;99.90;;;;;;4906618;29;20373;-76
2023/12/29 00:46:03;;;;;;;15.40;8.07;;;4.70;99.90;;;;;;4910085;29;20032;-76
2023/12/29 00:48:29;;;;;;;11.20;7.05;;;4.70;99.90;;;;;;4905357;29;20403;-75
2023/12/29 00:50:55;;;;;;;12.45;7.88;;;4.70;99.90;;;;;;4908622;29;20059;-75
2023/12/29 00:53:20;;;;;;;16.85;7.93;;;4.60;99.90;;;;;;4906857;29;20491;-76
2023/12/29 00:55:46;;;;;;;12.68;7.50;;;4.60;99.90;;;;;;4909776;29;20043;-75
2023/12/29 00:58:12;;;;;;;13.18;7.72;;;4.60;99.90;;;;;;4907411;29;20526;-76
2023/12/29 01:00:38;;;;;;;13.40;8.68;;;4.50;99.90;;;;;;4907608;29;20032;-76
2023/12/29 01:03:04;;;;;;;13.30;7.63;;;4.50;99.90;;;;;;4907961;29;20060;-76
2023/12/29 01:05:29;;;;;;;13.73;7.55;;;4.50;99.90;;;;;;4905398;29;20502;-75
2023/12/29 01:07:55;;;;;;;13.65;8.25;;;4.50;99.90;;;;;;4908482;29;20130;-76
2023/12/29 01:10:21;;;;;;;15.65;8.32;;;4.50;99.90;;;;;;4909772;29;20044;-76
2023/12/29 01:12:47;;;;;;;12.63;7.85;;;4.60;99.90;;;;;;4907151;29;20032;-75
2023/12/29 01:15:13;;;;;;;12.38;7.40;;;4.50;99.90;;;;;;4908289;29;20047;-76
2023/12/29 01:17:39;;;;;;;10.98;7.03;;;4.60;99.90;;;;;;4906488;29;20091;-75
2023/12/29 01:20:05;;;;;;;11.20;6.93;;;4.70;99.90;;;;;;4911971;29;20410;-76
2023/12/29 01:22:31;;;;;;;13.35;8.20;;;4.70;99.90;;;;;;4911501;29;20087;-76
2023/12/29 01:25:00;;;;;;;13.55;7.47;;;4.70;99.90;;;;;;4908008;29;20036;-76
2023/12/29 01:27:25;;;;;;;12.38;7.57;;;4.80;99.90;;;;;;4906289;29;20035;-76
2023/12/29 01:29:52;;;;;;;13.27;7.47;;;4.80;99.90;;;;;;4908277;29;20040;-76
2023/12/29 01:32:18;;;;;;;11.10;6.88;;;4.80;99.90;;;;;;4910283;29;20526;-75
2023/12/29 01:34:44;;;;;;;12.63;8.95;;;4.70;99.90;;;;;;4906021;29;20032;-76
2023/12/29 01:37:10;;;;;;;11.00;7.30;;;4.60;99.90;;;;;;4905311;29;20475;-76
2023/12/29 01:39:36;;;;;;;13.25;7.82;;;4.60;99.90;;;;;;4904653;29;20846;-75
2023/12/29 01:42:01;;;;;;;12.00;6.82;;;4.60;99.90;;;;;;4904777;29;20040;-76
2023/12/29 01:44:27;;;;;;;13.90;8.13;;;4.60;99.90;;;;;;4905534;29;20189;-76
2023/12/29 01:46:59;;;;;;;10.13;6.78;;;4.50;99.90;;;;;;4904770;29;20478;-76
2023/12/29 01:49:25;;;;;;;12.55;7.05;;;4.40;99.90;;;;;;4906861;29;20047;-76
2023/12/29 01:51:57;;;;;;;13.55;7.82;;;4.50;99.90;;;;;;4904746;29;20043;-76
2023/12/29 01:54:25;;;;;;;12.20;7.80;;;4.40;99.90;;;;;;4904490;29;20479;-75
2023/12/29 01:56:55;;;;;;;13.77;7.85;;;4.10;99.90;;;;;;4906368;29;20522;-76
2023/12/29 01:59:21;;;;;;;12.60;7.72;;;4.10;99.90;;;;;;4909226;29;20035;-76
2023/12/29 02:01:47;;;;;;;11.65;7.47;;;4.20;99.90;;;;;;4905122;29;20040;-75
2023/12/29 02:04:14;;;;;;;10.90;6.68;;;4.20;99.90;;;;;;4904855;29;20042;-76
2023/12/29 02:06:41;;;;;;;14.05;7.68;;;4.20;99.90;;;;;;4904903;29;20386;-76
2023/12/29 02:09:07;;;;;;;12.40;7.78;;;4.20;99.90;;;;;;4905220;29;20547;-76
2023/12/29 02:11:32;;;;;;;14.57;7.88;;;4.40;99.90;;;;;;4906763;29;20040;-75
2023/12/29 02:14:00;;;;;;;11.98;7.40;;;4.30;99.90;;;;;;4905925;29;20506;-75
2023/12/29 02:16:48;;;;;;;11.40;7.40;;;4.50;99.90;;;;;;4904039;29;20031;-75
2023/12/29 02:19:29;;;;;;;10.63;6.78;;;4.30;99.90;;;;;;4904387;29;20123;-75
2023/12/29 02:21:54;;;;;;;11.00;6.95;;;4.20;99.90;;;;;;4904193;29;20039;-76
2023/12/29 02:24:20;;;;;;;11.07;7.05;;;4.20;99.90;;;;;;4905866;29;20396;-75
2023/12/29 02:26:53;;;;;;;12.07;7.45;;;4.20;99.90;;;;;;4904810;29;20036;-76
2023/12/29 02:29:20;;;;;;;12.30;7.00;;;4.20;99.90;;;;;;4903971;29;20048;-75
2023/12/29 02:31:50;;;;;;;12.52;7.28;;;4.20;99.90;;;;;;4903480;29;20967;-75
2023/12/29 02:34:18;;;;;;;10.27;6.47;;;4.10;99.90;;;;;;4903933;29;20039;-75
2023/12/29 02:36:45;;;;;;;11.05;6.30;;;4.10;99.90;;;;;;4908868;29;20483;-75
2023/12/29 02:39:11;;;;;;;9.52;6.75;;;4.20;99.90;;;;;;4906837;29;20040;-75
2023/12/29 02:41:38;;;;;;;12.30;7.22;;;4.10;99.90;;;;;;4907446;29;20492;-76
2023/12/29 02:44:04;;;;;;;12.13;7.28;;;4.00;99.90;;;;;;4909311;29;20083;-75
2023/12/29 02:46:30;;;;;;;11.27;6.82;;;4.30;99.90;;;;;;4908610;29;21383;-76
2023/12/29 02:48:56;;;;;;;13.95;7.65;;;4.20;99.90;;;;;;4907558;29;20036;-76
2023/12/29 02:51:22;;;;;;;10.13;6.95;;;4.30;99.90;;;;;;4907581;29;20032;-75
2023/12/29 02:53:48;;;;;;;11.65;7.07;;;4.40;99.90;;;;;;4907530;29;20122;-75
2023/12/29 02:56:14;;;;;;;13.57;7.38;;;4.60;99.90;;;;;;4907339;29;20024;-75
2023/12/29 02:58:40;;;;;;;11.10;7.20;;;4.60;99.90;;;;;;4903294;29;20035;-76
2023/12/29 03:01:06;;;;;;;12.80;7.07;;;4.60;99.90;;;;;;4907688;29;20028;-75
2023/12/29 03:03:31;;;;;;;9.32;6.55;;;4.60;99.90;;;;;;4909292;29;20570;-76
2023/12/29 03:05:57;;;;;;;12.27;6.97;;;4.50;99.90;;;;;;4890489;29;21129;-75
2023/12/29 03:08:23;;;;;;;14.75;8.68;;;4.40;99.90;;;;;;4907042;29;20024;-75
2023/12/29 03:10:49;;;;;;;12.95;7.85;;;4.40;99.90;;;;;;4910935;29;20047;-75
2023/12/29 03:13:14;;;;;;;15.30;7.85;;;4.50;99.90;;;;;;4913154;29;20616;-75
2023/12/29 03:15:40;;;;;;;12.43;7.57;;;4.40;99.90;;;;;;4906975;29;20028;-76
2023/12/29 03:18:06;;;;;;;14.20;7.05;;;4.40;99.90;;;;;;4910247;29;20020;-75
2023/12/29 03:20:31;;;;;;;10.88;7.40;;;4.50;99.90;;;;;;4912507;29;20051;-75
2023/12/29 03:22:57;;;;;;;13.20;6.57;;;4.50;99.90;;;;;;4909020;29;20039;-75
2023/12/29 03:25:22;;;;;;;12.88;8.05;;;4.70;99.90;;;;;;4909589;29;20031;-76
2023/12/29 03:27:48;;;;;;;12.20;6.72;;;4.80;99.90;;;;;;4892100;29;20028;-75
2023/12/29 03:30:14;;;;;;;11.85;6.85;;;4.80;99.90;;;;;;4909713;29;20039;-75
2023/12/29 03:32:39;;;;;;;13.35;6.40;;;4.70;99.90;;;;;;4908571;29;20036;-75
2023/12/29 03:35:05;;;;;;;12.63;6.60;;;4.80;99.90;;;;;;4911141;29;20029;-75
2023/12/29 03:37:31;;;;;;;11.48;6.93;;;4.90;99.90;;;;;;4907699;29;20399;-75
2023/12/29 03:39:57;;;;;;;12.32;6.40;;;4.60;99.90;;;;;;4907202;29;20036;-75
2023/12/29 03:42:22;;;;;;;11.60;7.18;;;4.60;99.90;;;;;;4907448;29;20028;-75
2023/12/29 03:44:48;;;;;;;13.48;7.25;;;4.50;99.90;;;;;;4906988;29;20040;-75
2023/12/29 03:47:13;;;;;;;11.20;7.07;;;4.40;99.90;;;;;;4905815;29;20028;-76
2023/12/29 03:49:39;;;;;;;15.65;9.10;;;4.40;99.90;;;;;;4907216;29;20040;-73
2023/12/29 03:52:05;;;;;;;16.02;7.97;;;4.20;99.90;;;;;;4906625;29;20399;-75
2023/12/29 03:54:31;;;;;;;13.57;7.60;;;4.20;99.90;;;;;;4905975;29;20070;-75
2023/12/29 03:56:56;;;;;;;13.00;7.68;;;4.30;99.90;;;;;;4906442;29;20095;-75
2023/12/29 03:59:22;;;;;;;15.52;8.18;;;4.20;99.90;;;;;;4906713;29;20036;-75
2023/12/29 04:01:48;;;;;;;12.48;8.27;;;4.20;99.90;;;;;;4905773;29;20029;-75
2023/12/29 04:04:13;;;;;;;13.00;8.40;;;4.30;99.90;;;;;;4899879;29;20088;-74
2023/12/29 04:06:39;;;;;;;13.85;8.00;;;4.20;99.90;;;;;;4899709;29;20055;-74
2023/12/29 04:09:05;;;;;;;14.00;7.97;;;4.30;99.90;;;;;;4899887;29;20032;-74
2023/12/29 04:11:30;;;;;;;12.45;7.50;;;4.20;99.90;;;;;;4899774;29;20040;-74
2023/12/29 04:13:56;;;;;;;12.75;7.68;;;4.20;99.90;;;;;;4899538;29;20030;-74
2023/12/29 04:16:22;;;;;;;13.63;7.90;;;4.10;99.90;;;;;;4900116;29;20035;-74
2023/12/29 04:18:47;;;;;;;12.13;7.32;;;4.20;99.90;;;;;;4896060;29;20597;-74
2023/12/29 04:21:16;;;;;;;15.32;7.57;;;4.20;99.90;;;;;;4897369;29;20149;-74
2023/12/29 04:23:41;;;;;;;10.30;7.55;;;4.30;99.90;;;;;;4898942;29;20535;-74
2023/12/29 04:26:07;;;;;;;14.38;8.30;;;4.20;99.90;;;;;;4899261;29;20044;-74
2023/12/29 04:28:33;;;;;;;14.20;9.07;;;4.20;99.90;;;;;;4899739;29;20052;-74
2023/12/29 04:30:59;;;;;;;12.57;7.85;;;4.00;99.90;;;;;;4900632;29;20044;-74
2023/12/29 04:33:25;;;;;;;13.32;8.10;;;4.30;99.90;;;;;;4900397;29;21334;-74
2023/12/29 04:35:51;;;;;;;11.50;6.82;;;4.50;99.90;;;;;;4900032;29;20102;-74
2023/12/29 04:38:18;;;;;;;11.35;7.63;;;4.60;99.90;;;;;;4899951;29;20028;-74
2023/12/29 04:40:44;;;;;;;9.23;6.45;;;4.70;99.90;;;;;;4900406;29;20032;-75
2023/12/29 04:43:10;;;;;;;11.30;7.10;;;4.80;99.90;;;;;;4899961;29;20039;-75
2023/12/29 04:45:36;;;;;;;11.38;6.95;;;4.80;99.90;;;;;;4900739;29;20076;-75
2023/12/29 04:48:01;;;;;;;12.35;6.85;;;4.70;99.90;;;;;;4900263;29;20036;-74
2023/12/29 04:50:27;;;;;;;12.95;6.38;;;4.70;99.90;;;;;;4899551;29;20055;-74
2023/12/29 04:52:53;;;;;;;11.18;6.40;;;4.80;99.90;;;;;;4899937;29;20024;-75
2023/12/29 04:55:18;;;;;;;10.82;6.20;;;4.70;99.90;;;;;;4900125;29;20079;-74
2023/12/29 04:57:44;;;;;;;12.40;6.55;;;4.80;99.90;;;;;;4898633;29;20020;-74
2023/12/29 05:00:10;;;;;;;9.35;5.90;;;4.80;99.90;;;;;;4896291;29;20101;-74
2023/12/29 05:02:36;;;;;;;11.63;7.22;;;4.80;99.90;;;;;;4897109;29;20282;-74
2023/12/29 05:05:01;;;;;;;11.02;6.72;;;4.70;99.90;;;;;;4896162;29;20390;-74
2023/12/29 05:07:27;;;;;;;9.20;6.15;;;4.70;99.90;;;;;;4896586;29;20407;-74
2023/12/29 05:09:53;;;;;;;11.15;6.07;;;4.70;99.90;;;;;;4896347;29;20028;-74
2023/12/29 05:12:18;;;;;;;13.82;6.28;;;4.70;99.90;;;;;;4896123;29;20074;-75
2023/12/29 05:14:44;;;;;;;11.60;6.05;;;4.80;99.90;;;;;;4895943;29;20043;-75
2023/12/29 05:17:10;;;;;;;11.75;6.40;;;4.80;99.90;;;;;;4895957;29;20036;-75
2023/12/29 05:19:35;;;;;;;9.25;5.70;;;4.80;99.90;;;;;;4896355;29;20088;-75
2023/12/29 05:22:01;;;;;;;10.85;6.43;;;4.80;99.90;;;;;;4897060;29;20036;-74
2023/12/29 05:24:27;;;;;;;10.93;6.85;;;4.80;99.90;;;;;;4895341;29;20526;-73
2023/12/29 05:26:52;;;;;;;10.55;5.35;;;4.80;99.90;;;;;;4896599;29;20444;-75
2023/12/29 05:29:18;;;;;;;10.90;6.28;;;4.80;99.90;;;;;;4897180;29;20052;-74
2023/12/29 05:31:43;;;;;;;13.02;6.88;;;4.90;99.90;;;;;;4897066;29;20036;-74
2023/12/29 05:34:09;;;;;;;13.07;6.45;;;4.90;99.90;;;;;;4895499;29;20099;-76
2023/12/29 05:36:36;;;;;;;11.18;7.45;;;4.90;99.90;;;;;;4897735;29;20052;-76
2023/12/29 05:39:02;;;;;;;13.68;10.00;;;5.00;99.90;;;;;;4897353;29;20032;-76
2023/12/29 05:41:28;;;;;;;12.63;7.32;;;5.10;99.90;;;;;;4898109;29;20039;-75
2023/12/29 05:43:53;;;;;;;16.58;10.05;;;5.10;99.90;;;;;;4897442;29;20995;-75
2023/12/29 05:46:19;;;;;;;11.35;7.93;;;5.20;99.90;;;;;;4896862;29;20039;-75
2023/12/29 05:48:46;;;;;;;10.82;7.57;;;5.30;99.90;;;;;;4897414;29;20036;-75
2023/12/29 05:51:13;;;;;;;13.25;8.32;;;5.00;99.90;;;;;;4898084;29;20040;-75
2023/12/29 05:53:42;;;;;;;15.68;7.55;;;4.70;99.90;;;;;;4897241;29;20047;-76
2023/12/29 05:56:11;;;;;;;12.48;6.60;;;4.70;99.90;;;;;;4900048;29;20024;-75
2023/12/29 05:58:37;;;;;;;10.35;7.13;;;4.60;99.90;;;;;;4899490;29;20240;-74
2023/12/29 06:01:03;;;;;;;11.07;6.63;;;4.60;99.90;;;;;;4896895;29;20040;-74
2023/12/29 06:03:28;;;;;;;10.93;6.45;;;4.70;99.90;;;;;;4897713;29;20032;-74
2023/12/29 06:05:54;;;;;;;14.68;8.18;;;4.70;99.90;;;;;;4897096;29;20043;-75
2023/12/29 06:08:20;;;;;;;15.13;7.43;;;4.90;99.90;;;;;;4896634;29;20040;-76
2023/12/29 06:10:45;;;;;;;12.57;7.70;;;4.90;99.90;;;;;;4898925;29;20131;-75
2023/12/29 06:13:11;;;;;;;10.93;6.43;;;5.00;99.90;;;;;;4900775;29;20111;-75
2023/12/29 06:15:37;;;;;;;10.27;6.68;;;4.90;99.90;;;;;;4901173;29;20311;-75
2023/12/29 06:18:03;;;;;;;10.45;7.00;;;4.90;99.90;;;;;;4901418;29;20463;-75
2023/12/29 06:20:28;;;;;;;12.43;7.13;;;4.90;99.90;;;;;;4900703;29;20255;-75
2023/12/29 06:22:55;;;;;;;12.27;6.20;;;5.00;99.90;;;;;;4899805;29;20456;-75
2023/12/29 06:25:21;;;;;;;11.02;7.13;;;5.00;99.90;;;;;;4899843;29;20032;-75
2023/12/29 06:27:48;;;;;;;9.85;5.88;;;5.00;99.90;;;;;;4900097;29;20625;-75
2023/12/29 06:30:14;;;;;;;12.98;6.88;;;5.00;99.90;;;;;;4900463;29;20051;-75
2023/12/29 06:32:40;;;;;;;9.45;5.75;;;4.90;99.90;;;;;;4900128;29;20728;-75
2023/12/29 06:35:06;;;;;;;10.60;6.95;;;4.90;99.90;;;;;;4900354;29;20039;-75
2023/12/29 06:37:32;;;;;;;13.40;7.15;;;5.00;99.90;;;;;;4900143;29;20032;-75
2023/12/29 06:39:58;;;;;;;12.32;6.78;;;5.00;99.90;;;;;;4903435;29;20040;-74
2023/12/29 06:42:24;;;;;;;11.50;6.07;;;5.00;99.90;;;;;;4901183;29;20028;-75
2023/12/29 06:44:50;;;;;;;10.95;6.13;;;4.90;99.90;;;;;;4900548;29;20120;-75
2023/12/29 06:47:15;;;;;;;9.70;6.03;;;4.90;99.90;;;;;;4899881;29;20031;-75
2023/12/29 06:49:41;;;;;;;10.60;6.35;;;4.90;99.90;;;;;;4905389;29;20028;-74
2023/12/29 06:52:07;;;;;;;10.85;6.32;;;4.80;99.90;;;;;;4902038;29;20036;-75
2023/12/29 06:54:33;;;;;;;10.50;5.97;;;4.80;99.90;;;;;;4900279;29;20043;-75
2023/12/29 06:56:59;;;;;;;10.07;6.82;;;4.70;99.90;;;;;;4899617;29;20039;-75
2023/12/29 06:59:25;;;;;;;10.25;5.90;;;4.70;99.90;;;;;;4900012;29;20367;-74
2023/12/29 07:01:51;;;;;;;10.13;5.97;;;4.70;99.90;;;;;;4899788;29;20025;-76
2023/12/29 07:04:16;;;;;;;11.07;5.93;;;4.70;99.90;;;;;;4899655;29;20030;-75
2023/12/29 07:06:43;;;;;;;10.27;6.13;;;4.70;99.90;;;;;;4900381;29;20063;-75
2023/12/29 07:09:09;;;;;;;11.35;6.13;;;4.70;99.90;;;;;;4899946;29;20028;-75
2023/12/29 07:11:35;;;;;;;9.50;5.38;;;4.60;99.90;;;;;;4900240;29;20039;-75
2023/12/29 07:14:01;;;;;;;9.25;5.60;;;4.50;99.90;;;;;;4900119;29;20031;-75
2023/12/29 07:16:27;;;;;;;9.95;5.80;;;4.60;99.90;;;;;;4898979;29;20040;-75
2023/12/29 07:18:53;;;;;;;10.20;5.75;;;4.60;99.90;;;;;;4900096;29;20032;-76
2023/12/29 07:21:19;;;;;;;9.38;5.35;;;4.60;99.90;;;;;;4898840;29;20056;-75
2023/12/29 07:23:45;;;;;;;9.25;6.57;;;4.70;99.90;;;;;;4900715;29;20028;-75
2023/12/29 07:26:10;;;;;;;15.00;7.68;;;4.70;99.90;;;;;;4900157;29;20035;-75
2023/12/29 07:28:36;;;;;;;12.90;6.82;;;4.70;99.90;;;;;;4899362;29;20036;-75
2023/12/29 07:31:02;;;;;;;10.57;7.63;;;4.60;99.90;;;;;;4899147;29;20048;-75
2023/12/29 07:33:28;;;;;;;13.98;8.90;;;4.70;99.90;;;;;;4899179;29;20095;-75
2023/12/29 07:35:54;;;;;;;12.60;7.55;;;4.60;99.90;;;;;;4899843;29;20040;-75
2023/12/29 07:38:20;;;;;;;10.57;7.22;;;4.80;99.90;;;;;;4898961;29;20572;-75
2023/12/29 07:40:47;;;;;;;11.70;7.15;;;4.90;99.90;;;;;;4898853;29;20099;-75
2023/12/29 07:43:13;;;;;;;12.20;6.97;;;4.90;99.90;;;;;;4899266;29;20091;-74
2023/12/29 07:45:39;;;;;;;12.50;6.22;;;4.90;99.90;;;;;;4899677;29;20395;-75
2023/12/29 07:48:05;;;;;;;11.10;6.50;;;4.90;99.90;;;;;;4899174;29;20036;-75
2023/12/29 07:50:31;;;;;;;11.70;6.30;;;5.00;99.90;;;;;;4899979;29;20044;-75
2023/12/29 07:52:56;;;;;;;12.10;6.45;;;5.00;99.90;;;;;;4899361;29;20390;-75
2023/12/29 07:55:22;;;;;;;11.85;6.20;;;5.00;99.90;;;;;;4900066;29;20040;-75
2023/12/29 07:57:48;;;;;;;9.77;6.18;;;5.10;99.90;;;;;;4901332;29;20040;-74
2023/12/29 08:00:17;;;;;;;13.70;6.60;;;5.10;99.90;;;;;;4901382;29;20036;-75
2023/12/29 08:02:43;;;;;;;13.73;7.85;;;5.10;99.90;;;;;;4901170;29;20471;-75
2023/12/29 08:05:08;;;;;;;11.95;6.90;;;5.00;99.90;;;;;;4901040;29;20036;-75
2023/12/29 08:07:37;;;;;;;14.23;8.43;;;5.00;99.90;;;;;;4902459;29;20036;-74
2023/12/29 08:10:04;;;;;;;13.18;7.55;;;5.10;99.90;;;;;;4901792;29;20051;-75
2023/12/29 08:12:30;;;;;;;12.35;6.13;;;5.20;99.90;;;;;;4901734;29;20032;-75
2023/12/29 08:14:56;;;;;;;10.88;6.35;;;5.30;99.90;;;;;;4900399;29;20032;-75
2023/12/29 08:17:22;;;;;;;9.20;5.85;;;5.40;99.90;;;;;;4900816;29;20076;-74
2023/12/29 08:19:48;;;;;;;16.10;6.57;;;5.50;99.90;;;;;;4900931;29;20168;-75
2023/12/29 08:22:13;;;;;;;13.25;7.15;;;5.50;99.90;;;;;;4901536;29;20086;-75
2023/12/29 08:24:43;;;;;;;12.38;6.93;;;5.40;99.90;;;;;;4900582;29;20548;-75
2023/12/29 08:27:10;;;;;;;11.95;6.55;;;5.40;99.90;;;;;;4901473;29;20036;-75
2023/12/29 08:29:36;;;;;;;9.95;6.57;;;5.50;99.90;;;;;;4901073;29;20040;-75
2023/12/29 08:32:02;;;;;;;9.68;6.47;;;5.50;99.90;;;;;;4899211;29;20028;-75
2023/12/29 08:34:28;;;;;;;12.95;6.25;;;5.60;99.90;;;;;;4880825;29;20059;-75
2023/12/29 08:36:53;;;;;;;10.27;6.63;;;5.60;99.90;;;;;;4897129;29;20055;-75
2023/12/29 08:39:19;;;;;;;12.95;7.43;;;5.70;99.90;;;;;;4898757;29;20036;-74
2023/12/29 08:41:46;;;;;;;11.63;6.30;;;5.70;99.90;;;;;;4900631;29;20475;-75
2023/12/29 08:44:12;;;;;;;13.13;7.10;;;5.70;99.90;;;;;;4900404;29;20091;-74
2023/12/29 08:46:38;;;;;;;10.80;5.93;;;5.70;99.90;;;;;;4901195;29;20028;-75
2023/12/29 08:49:03;;;;;;;12.27;6.88;;;5.80;99.90;;;;;;4900431;29;20062;-74
2023/12/29 08:51:29;;;;;;;13.35;7.78;;;5.80;99.90;;;;;;4900410;29;20099;-75
2023/12/29 08:53:55;;;;;;;18.15;8.45;;;5.80;99.90;;;;;;4900441;29;20036;-74
2023/12/29 08:56:21;;;;;;;13.20;8.57;;;5.70;99.90;;;;;;4901681;29;20390;-75
2023/12/29 08:58:46;;;;;;;17.63;9.63;;;5.80;99.90;;;;;;4899918;29;20415;-75
2023/12/29 09:01:12;;;;;;;15.13;9.15;;;5.80;99.90;;;;;;4900606;29;20140;-75
2023/12/29 09:03:38;;;;;;;16.27;9.93;;;5.80;99.90;;;;;;4900117;29;20037;-75
2023/12/29 09:06:04;;;;;;;14.63;8.70;;;5.90;99.90;;;;;;4900923;29;21673;-75
2023/12/29 09:08:30;;;;;;;16.02;9.45;;;5.90;99.90;;;;;;4900595;29;20111;-76
2023/12/29 09:10:56;;;;;;;16.00;9.43;;;6.00;99.90;;;;;;4900799;29;20556;-75
2023/12/29 09:13:25;;;;;;;16.60;9.25;;;6.00;99.90;;;;;;4900608;29;20044;-75
2023/12/29 09:15:50;;;;;;;16.40;9.48;;;6.10;99.90;;;;;;4900765;29;20032;-75
2023/12/29 09:18:16;;;;;;;16.85;9.55;;;6.20;99.90;;;;;;4900595;29;20040;-75
2023/12/29 09:20:42;;;;;;;14.15;9.10;;;6.20;99.90;;;;;;4900346;29;20502;-75
2023/12/29 09:23:07;;;;;;;17.30;10.02;;;6.20;99.90;;;;;;4900045;29;20051;-75
2023/12/29 09:25:33;;;;;;;19.05;8.95;;;6.30;99.90;;;;;;4898615;29;20115;-75
2023/12/29 09:27:59;;;;;;;15.38;8.80;;;6.40;99.90;;;;;;4897689;29;20364;-75
2023/12/29 09:30:24;;;;;;;20.83;9.73;;;6.40;99.90;;;;;;4897521;29;20059;-75
2023/12/29 09:32:50;;;;;;;17.95;8.90;;;6.30;99.90;;;;;;4897567;29;20110;-75
2023/12/29 09:35:17;;;;;;;16.48;9.30;;;6.30;99.90;;;;;;4896661;29;20032;-75
2023/12/29 09:37:43;;;;;;;19.05;9.68;;;6.30;99.90;;;;;;4896501;29;20117;-76
2023/12/29 09:40:10;;;;;;;16.23;9.23;;;6.40;99.90;;;;;;4897010;29;20032;-75
2023/12/29 09:42:37;;;;;;;17.08;9.88;;;6.40;99.90;;;;;;4896916;29;20036;-75
2023/12/29 09:45:09;;;;;;;17.00;10.15;;;6.50;99.90;;;;;;4896100;29;20036;-76
2023/12/29 09:47:38;;;;;;;14.52;9.73;;;6.40;99.90;;;;;;4896590;29;20032;-75
2023/12/29 09:50:05;;;;;;;17.85;9.68;;;6.30;99.90;;;;;;4896545;29;20048;-75
2023/12/29 09:52:33;;;;;;;13.48;8.13;;;6.40;99.90;;;;;;4896891;29;20036;-75
2023/12/29 09:54:59;;;;;;;15.40;8.63;;;6.50;99.90;;;;;;4896996;29;20050;-75
2023/12/29 09:57:25;;;;;;;14.90;9.00;;;6.60;99.90;;;;;;4899255;29;20028;-75
2023/12/29 09:59:54;;;;;;;16.13;10.32;;;6.60;99.90;;;;;;4899320;29;20068;-76
2023/12/29 10:02:22;;;;;;;16.27;8.80;;;6.50;99.90;;;;;;4898975;29;21619;-75
2023/12/29 10:04:48;;;;;;;14.40;9.48;;;6.60;99.90;;;;;;4899437;29;20132;-75
2023/12/29 10:07:23;;;;;;;15.15;10.07;;;6.70;99.90;;;;;;4900232;29;20569;-75
2023/12/29 10:09:52;;;;;;;17.08;10.68;;;6.80;99.90;;;;;;4899334;29;20036;-75
2023/12/29 10:12:19;;;;;;;16.52;10.07;;;6.80;99.90;;;;;;4899651;29;20042;-75
2023/12/29 10:15:08;;;;;;;18.83;11.13;;;6.70;99.90;;;;;;4900207;29;20120;-75
2023/12/29 10:17:41;;;;;;;16.40;10.30;;;6.70;99.90;;;;;;4899420;29;20139;-75
2023/12/29 10:20:41;;;;;;;18.13;10.10;;;6.70;99.90;;;;;;4899192;29;20056;-75
2023/12/29 10:23:20;;;;;;;14.63;9.68;;;6.80;99.90;;;;;;4883099;29;20049;-75
2023/12/29 10:25:47;;;;;;;18.83;9.68;;;6.80;99.90;;;;;;4899730;29;20060;-74
2023/12/29 10:28:13;;;;;;;18.67;8.73;;;6.90;99.90;;;;;;4899310;29;20445;-75
2023/12/29 10:30:40;;;;;;;17.05;9.88;;;6.70;99.90;;;;;;4899994;29;20044;-75
2023/12/29 10:33:05;;;;;;;13.88;8.65;;;6.70;99.90;;;;;;4899233;29;20077;-75
2023/12/29 10:35:33;;;;;;;13.05;7.80;;;6.80;99.90;;;;;;4899401;29;20024;-75
2023/12/29 10:38:09;;;;;;;14.48;8.32;;;6.80;99.90;;;;;;4899354;29;20043;-75
2023/12/29 10:40:35;;;;;;;15.38;9.43;;;6.90;99.90;;;;;;4898821;29;20115;-75
2023/12/29 10:43:06;;;;;;;14.00;9.18;;;6.90;99.90;;;;;;4898994;29;20385;-75
2023/12/29 10:45:32;;;;;;;13.57;8.40;;;6.90;99.90;;;;;;4899506;29;20040;-75
2023/12/29 10:48:00;;;;;;;12.98;7.95;;;7.00;99.90;;;;;;4898872;29;20407;-75
2023/12/29 10:50:27;;;;;;;15.25;9.40;;;7.10;99.90;;;;;;4898715;29;20032;-75
2023/12/29 10:53:15;;;;;;;17.77;8.73;;;7.00;99.90;;;;;;4899154;29;20040;-76
2023/12/29 10:55:40;;;;;;;11.85;8.20;;;7.10;99.90;;;;;;4899922;29;20059;-75
2023/12/29 10:58:06;;;;;;;14.18;8.70;;;7.10;99.90;;;;;;4902514;29;20291;-75
2023/12/29 11:00:32;;;;;;;14.05;9.15;;;7.10;99.90;;;;;;4902648;29;20031;-75
2023/12/29 11:02:59;;;;;;;17.08;8.63;;;7.10;99.90;;;;;;4902493;29;20036;-75
2023/12/29 11:05:26;;;;;;;12.48;8.75;;;7.10;99.90;;;;;;4903086;29;20035;-75
2023/12/29 11:07:54;;;;;;;15.48;8.52;;;7.20;99.90;;;;;;4902737;29;20035;-75
2023/12/29 11:10:22;;;;;;;15.23;8.88;;;7.10;99.90;;;;;;4902285;29;20565;-75
2023/12/29 11:12:49;;;;;;;13.55;8.57;;;7.20;99.90;;;;;;4899118;29;20039;-75
2023/12/29 11:15:16;;;;;;;14.73;8.45;;;7.10;99.90;;;;;;4899409;29;20047;-75
2023/12/29 11:17:49;;;;;;;13.07;8.60;;;7.20;99.90;;;;;;4899920;29;20064;-75
2023/12/29 11:20:16;;;;;;;12.98;8.23;;;7.00;99.90;;;;;;4881729;29;20643;-75
2023/12/29 11:22:43;;;;;;;13.63;8.18;;;7.00;99.90;;;;;;4898932;29;20024;-75
2023/12/29 11:25:09;;;;;;;14.70;8.32;;;7.00;99.90;;;;;;4898840;29;20538;-76
2023/12/29 11:27:35;;;;;;;12.10;7.07;;;7.00;99.90;;;;;;4900628;29;20463;-75
2023/12/29 11:30:04;;;;;;;11.23;7.70;;;7.00;99.90;;;;;;4902261;29;20075;-75
2023/12/29 11:32:51;;;;;;;12.68;6.95;;;7.10;99.90;;;;;;4902103;29;20032;-75
2023/12/29 11:35:20;;;;;;;12.07;7.57;;;7.10;99.90;;;;;;4902209;29;20043;-76
2023/12/29 11:37:54;;;;;;;13.32;7.82;;;7.00;99.90;;;;;;4901913;29;20043;-75
2023/12/29 11:40:34;;;;;;;15.52;8.00;;;7.00;99.90;;;;;;4901621;29;20056;-75
2023/12/29 11:43:05;;;;;;;15.07;8.02;;;7.10;99.90;;;;;;4901589;29;20039;-75
2023/12/29 11:45:34;;;;;;;13.25;8.18;;;7.10;99.90;;;;;;4901012;29;20053;-75
2023/12/29 11:48:02;;;;;;;13.35;7.03;;;7.10;99.90;;;;;;4901753;29;20048;-75
2023/12/29 11:50:40;;;;;;;14.55;7.72;;;7.10;99.90;;;;;;4901377;29;20043;-75
2023/12/29 11:53:08;;;;;;;12.10;8.20;;;7.10;99.90;;;;;;4901651;29;20402;-75
2023/12/29 11:55:38;;;;;;;14.00;7.95;;;7.10;99.90;;;;;;4901591;29;20132;-75
2023/12/29 11:58:23;;;;;;;13.38;8.13;;;7.20;99.90;;;;;;4901900;29;20028;-75
2023/12/29 12:00:49;;;;;;;13.98;7.90;;;7.20;99.90;;;;;;4901150;29;20043;-74
2023/12/29 12:03:16;;;;;;;13.38;8.18;;;7.20;99.90;;;;;;4900494;29;20016;-74
2023/12/29 12:05:47;;;;;;;11.40;7.68;;;7.20;99.90;;;;;;4901118;29;20463;-74
2023/12/29 12:08:35;;;;;;;12.75;7.47;;;7.10;99.90;;;;;;4899845;29;20558;-75
2023/12/29 12:11:31;;;;;;;16.42;8.25;;;7.20;99.90;;;;;;4900803;29;20135;-73
2023/12/29 12:13:57;;;;;;;14.43;7.78;;;7.10;99.90;;;;;;4893907;29;20398;-73
2023/12/29 12:16:47;;;;;;;12.77;8.07;;;7.10;99.90;;;;;;4900540;29;20043;-74
2023/12/29 12:19:14;;;;;;;15.02;9.40;;;7.20;99.90;;;;;;4900277;29;20040;-74
2023/12/29 12:21:41;;;;;;;15.85;9.07;;;7.10;99.90;;;;;;4900708;29;20052;-74
2023/12/29 12:24:07;;;;;;;10.45;7.15;;;7.10;99.90;;;;;;4900153;29;20043;-73
2023/12/29 12:26:34;;;;;;;15.23;7.90;;;7.10;99.90;;;;;;4900471;29;20027;-74
2023/12/29 12:29:00;;;;;;;12.73;8.00;;;7.10;99.90;;;;;;4900293;29;20036;-73
2023/12/29 12:31:26;;;;;;;14.10;8.05;;;7.10;99.90;;;;;;4900232;29;20506;-73
2023/12/29 12:34:00;;;;;;;13.25;8.18;;;7.10;99.90;;;;;;4900547;29;20662;-73
2023/12/29 12:36:26;;;;;;;13.27;8.15;;;7.10;99.90;;;;;;4900416;29;20035;-73
2023/12/29 12:38:56;;;;;;;14.43;7.97;;;7.10;99.90;;;;;;4900700;29;20031;-73
2023/12/29 12:41:25;;;;;;;13.70;8.25;;;7.10;99.90;;;;;;4900068;29;20027;-74
2023/12/29 12:44:22;;;;;;;16.02;8.73;;;7.10;99.90;;;;;;4899782;29;20569;-73
2023/12/29 12:46:47;;;;;;;16.13;9.55;;;7.00;99.90;;;;;;4899760;29;20032;-74
2023/12/29 12:49:14;;;;;;;14.07;8.68;;;7.00;99.90;;;;;;4899892;29;20055;-73